Joliet, Montana
Current Conditions -  °F | °C
As of 12:53 AM on Wednesday 22 Oct 2014 (Local Time) from KBIL Reporting Station
Clear Clear  
Wind Chill: 42°   Ceiling: Unl
Heat Index: 49°   Visibility: 10mi
Dew Point: 30°   Wind: 20mph
Humidity: 48%   Direction: 280°W
Pressure: 29.94"   Gusts: NA
Location:  45.49°N, 108.97°W
Report Text: KBIL 220653Z 28017KT 10SM CLR 09/M01 A2994 RMK AO2 PK WND 29027/0623 SLP124 T00941011 402330078
Loading
Personal Weather Stations






























Interactive Weather Map
Tropical Storm Tracking
New forecast layout! Learn more

10-Day Weather Forecast

Advertisements
Track Severe Weather on mobile